createdAt,value
2017-02-23T00:00:49.668Z,942.47
2017-02-23T00:01:49.694Z,942.53
2017-02-23T00:02:49.644Z,942.51
2017-02-23T00:03:49.632Z,942.54
2017-02-23T00:04:49.692Z,942.53
2017-02-23T00:05:49.610Z,942.47
2017-02-23T00:06:49.597Z,942.53
2017-02-23T00:07:49.610Z,942.41
2017-02-23T00:08:49.575Z,942.44
2017-02-23T00:09:49.564Z,942.51
2017-02-23T00:10:49.572Z,942.46
2017-02-23T00:11:49.540Z,942.49
2017-02-23T00:12:49.529Z,942.43
2017-02-23T00:13:49.627Z,942.43
2017-02-23T00:14:49.506Z,942.36
2017-02-23T00:15:49.495Z,942.37
2017-02-23T00:16:49.582Z,942.39
2017-02-23T00:17:49.473Z,942.38
2017-02-23T00:18:49.459Z,942.48
2017-02-23T00:19:49.562Z,942.44
2017-02-23T00:20:49.438Z,942.4
2017-02-23T00:21:49.425Z,942.4
2017-02-23T00:22:49.414Z,942.41
2017-02-23T00:23:49.403Z,942.35
2017-02-23T00:24:49.390Z,942.37
2017-02-23T00:25:49.380Z,942.31
2017-02-23T00:26:49.367Z,942.35
2017-02-23T00:27:49.355Z,942.23
2017-02-23T00:28:49.345Z,942.3
2017-02-23T00:29:49.333Z,942.38
2017-02-23T00:30:49.320Z,942.3
2017-02-23T00:31:49.309Z,942.29
2017-02-23T00:32:49.297Z,942.43
2017-02-23T00:33:49.286Z,942.36
2017-02-23T00:34:49.275Z,942.35
2017-02-23T00:35:49.279Z,942.38
2017-02-23T00:36:49.250Z,942.45
2017-02-23T00:37:49.240Z,942.29
2017-02-23T00:38:49.265Z,942.42
2017-02-23T00:39:49.217Z,942.42
2017-02-23T00:40:49.206Z,942.42
2017-02-23T00:41:49.227Z,942.42
2017-02-23T00:42:49.183Z,942.33
2017-02-23T00:43:49.170Z,942.41
2017-02-23T00:44:49.192Z,942.37
2017-02-23T00:45:49.148Z,942.42
2017-02-23T00:46:49.139Z,942.39
2017-02-23T00:47:49.158Z,942.37
2017-02-23T00:48:49.113Z,942.29
2017-02-23T00:49:49.103Z,942.31
2017-02-23T00:50:49.090Z,942.39
2017-02-23T00:51:49.078Z,942.33
2017-02-23T00:52:49.068Z,942.35
2017-02-23T00:53:49.055Z,942.42
2017-02-23T00:54:49.043Z,942.39
2017-02-23T00:55:49.033Z,942.43
2017-02-23T00:56:49.020Z,942.32
2017-02-23T00:57:49.009Z,942.39
2017-02-23T00:58:48.998Z,942.31
2017-02-23T00:59:49.128Z,942.32
2017-02-23T01:00:48.974Z,942.24
2017-02-23T01:01:48.962Z,942.4
2017-02-23T01:02:48.952Z,942.25
2017-02-23T01:03:48.940Z,942.28
2017-02-23T01:04:49.013Z,942.35
2017-02-23T01:05:48.916Z,942.26
2017-02-23T01:06:48.905Z,942.25
2017-02-23T01:07:49.003Z,942.39
2017-02-23T01:08:48.882Z,942.31
2017-02-23T01:09:48.870Z,942.29
2017-02-23T01:10:48.963Z,942.28
2017-02-23T01:11:48.848Z,942.29
2017-02-23T01:12:48.836Z,942.3
2017-02-23T01:13:48.968Z,942.2
2017-02-23T01:14:48.813Z,942.26
2017-02-23T01:15:48.801Z,942.19
2017-02-23T01:16:48.930Z,942.29
2017-02-23T01:17:48.778Z,942.28
2017-02-23T01:18:48.899Z,942.14
2017-02-23T01:19:48.755Z,942.22
2017-02-23T01:20:48.743Z,942.17
2017-02-23T01:21:48.873Z,942.01
2017-02-23T01:22:48.722Z,942.08
2017-02-23T01:23:48.709Z,942.16
2017-02-23T01:24:48.867Z,942.15
2017-02-23T01:25:48.686Z,942.08
2017-02-23T01:26:48.675Z,942.06
2017-02-23T01:27:48.758Z,942.09
2017-02-23T01:28:48.652Z,942.12
2017-02-23T01:29:48.641Z,942.03
2017-02-23T01:30:48.630Z,942.07
2017-02-23T01:31:48.619Z,942.1
2017-02-23T01:32:48.607Z,942.06
2017-02-23T01:33:48.597Z,942.04
2017-02-23T01:34:48.584Z,942.09
2017-02-23T01:35:48.573Z,942.1
2017-02-23T01:36:48.562Z,942.06
2017-02-23T01:37:48.552Z,942.08
2017-02-23T01:38:48.540Z,942.09
2017-02-23T01:39:48.529Z,942.06
2017-02-23T01:40:48.516Z,942.03
2017-02-23T01:41:48.505Z,942.05
2017-02-23T01:42:48.493Z,942.16
2017-02-23T01:43:48.483Z,942.07
2017-02-23T01:44:48.472Z,942.07
2017-02-23T01:45:48.460Z,942
2017-02-23T01:46:48.448Z,942.07
2017-02-23T01:47:48.438Z,942.11
2017-02-23T01:48:48.426Z,942
2017-02-23T01:49:48.413Z,942.04
2017-02-23T01:50:48.403Z,942.09
2017-02-23T01:51:48.393Z,942.04
2017-02-23T01:52:48.380Z,942.06
2017-02-23T01:53:48.369Z,942.01
2017-02-23T01:54:48.359Z,942.03
2017-02-23T01:55:48.346Z,942.04
2017-02-23T01:56:48.335Z,942.14
2017-02-23T01:57:48.324Z,942.04
2017-02-23T01:58:48.313Z,942.06
2017-02-23T01:59:48.301Z,941.99
2017-02-23T02:00:48.289Z,941.93
2017-02-23T02:01:48.278Z,941.97
2017-02-23T02:02:48.268Z,942.06
2017-02-23T02:03:48.255Z,941.94
2017-02-23T02:04:48.245Z,942.07
2017-02-23T02:05:48.232Z,941.97
2017-02-23T02:06:48.221Z,941.97
2017-02-23T02:07:48.209Z,942.07
2017-02-23T02:08:48.199Z,942.11
2017-02-23T02:09:48.187Z,942
2017-02-23T02:10:48.175Z,941.93
2017-02-23T02:11:48.163Z,941.99
2017-02-23T02:12:48.157Z,941.92
2017-02-23T02:13:48.140Z,942.02
2017-02-23T02:14:48.130Z,941.96
2017-02-23T02:15:48.118Z,941.92
2017-02-23T02:16:48.107Z,941.95
2017-02-23T02:17:48.096Z,942.02
2017-02-23T02:18:48.084Z,941.91
2017-02-23T02:19:48.074Z,941.9
2017-02-23T02:20:48.062Z,941.97
2017-02-23T02:21:48.049Z,941.86
2017-02-23T02:22:48.038Z,942
2017-02-23T02:23:48.026Z,942.04
2017-02-23T02:24:48.016Z,942.01
2017-02-23T02:25:48.004Z,942.09
2017-02-23T02:26:47.992Z,942.05
2017-02-23T02:27:47.981Z,941.9
2017-02-23T02:28:47.969Z,941.87
2017-02-23T02:29:47.958Z,942.02
2017-02-23T02:30:47.946Z,941.93
2017-02-23T02:31:47.936Z,942.01
2017-02-23T02:32:47.923Z,942.06
2017-02-23T02:33:47.912Z,942.03
2017-02-23T02:34:47.901Z,942.01
2017-02-23T02:35:47.889Z,941.99
2017-02-23T02:36:47.877Z,942.04
2017-02-23T02:37:47.866Z,941.99
2017-02-23T02:38:47.853Z,941.91
2017-02-23T02:39:47.845Z,941.98
2017-02-23T02:40:47.830Z,942.03
2017-02-23T02:41:47.901Z,941.96
2017-02-23T02:42:47.809Z,941.97
2017-02-23T02:43:47.846Z,941.98
2017-02-23T02:44:47.784Z,941.94
2017-02-23T02:45:47.773Z,941.98
2017-02-23T02:46:47.899Z,942.05
2017-02-23T02:47:47.750Z,941.95
2017-02-23T02:48:47.739Z,942.04
2017-02-23T02:49:47.827Z,941.98
2017-02-23T02:50:47.715Z,941.91
2017-02-23T02:51:47.704Z,941.95
2017-02-23T02:52:47.692Z,941.91
2017-02-23T02:53:47.777Z,941.94
2017-02-23T02:54:47.775Z,941.88
2017-02-23T02:55:47.658Z,941.99
2017-02-23T02:56:47.799Z,941.95
2017-02-23T02:57:47.671Z,942.07
2017-02-23T02:58:47.624Z,941.95
2017-02-23T02:59:47.617Z,941.94
2017-02-23T03:00:47.600Z,941.87
2017-02-23T03:01:47.592Z,941.84
2017-02-23T03:02:47.578Z,941.91
2017-02-23T03:03:47.568Z,941.93
2017-02-23T03:04:47.594Z,941.84
2017-02-23T03:05:47.544Z,941.76
2017-02-23T03:06:47.534Z,941.87
2017-02-23T03:07:47.628Z,941.82
2017-02-23T03:08:47.511Z,941.9
2017-02-23T03:09:47.498Z,941.84
2017-02-23T03:10:47.579Z,941.77
2017-02-23T03:11:47.499Z,941.83
2017-02-23T03:12:47.629Z,941.9
2017-02-23T03:13:47.754Z,941.85
2017-02-23T03:14:47.442Z,941.79
2017-02-23T03:15:47.431Z,941.85
2017-02-23T03:16:47.509Z,941.82
2017-02-23T03:17:47.408Z,941.79
2017-02-23T03:18:47.395Z,941.94
2017-02-23T03:19:47.428Z,941.89
2017-02-23T03:20:47.374Z,941.9
2017-02-23T03:21:47.362Z,941.87
2017-02-23T03:22:47.398Z,941.94
2017-02-23T03:23:47.428Z,941.88
2017-02-23T03:24:47.327Z,941.91
2017-02-23T03:25:47.316Z,941.9
2017-02-23T03:26:47.306Z,941.92
2017-02-23T03:27:47.292Z,941.9
2017-02-23T03:28:47.284Z,941.85
2017-02-23T03:29:47.270Z,942.02
2017-02-23T03:30:47.259Z,942.02
2017-02-23T03:31:47.248Z,942.1
2017-02-23T03:32:47.236Z,941.93
2017-02-23T03:33:47.225Z,942.03
2017-02-23T03:34:47.213Z,942.02
2017-02-23T03:35:47.202Z,942.06
2017-02-23T03:36:47.225Z,941.97
2017-02-23T03:37:47.179Z,941.94
2017-02-23T03:38:47.166Z,941.99
2017-02-23T03:39:47.285Z,942
2017-02-23T03:40:47.145Z,942.05
2017-02-23T03:41:47.133Z,942.05
2017-02-23T03:42:47.218Z,942.07
2017-02-23T03:43:47.115Z,942.05
2017-02-23T03:44:47.098Z,942.13
2017-02-23T03:45:47.196Z,942.14
2017-02-23T03:46:47.075Z,942.15
2017-02-23T03:47:47.063Z,942.14
2017-02-23T03:48:47.336Z,942.15
2017-02-23T03:49:47.041Z,942.07
2017-02-23T03:50:47.063Z,942.08
2017-02-23T03:51:47.018Z,942.08
2017-02-23T03:52:47.007Z,941.99
2017-02-23T03:53:47.153Z,942.05
2017-02-23T03:54:46.983Z,942.08
2017-02-23T03:55:46.974Z,942.09
2017-02-23T03:56:47.103Z,942.05
2017-02-23T03:57:46.949Z,942.07
2017-02-23T03:58:46.937Z,942.03
2017-02-23T03:59:47.031Z,942.09
2017-02-23T04:00:46.914Z,942.14
2017-02-23T04:01:46.903Z,942.04
2017-02-23T04:02:47.056Z,942.06
2017-02-23T04:03:46.880Z,941.91
2017-02-23T04:04:46.868Z,942.05
2017-02-23T04:05:46.933Z,942.09
2017-02-23T04:06:46.845Z,942.07
2017-02-23T04:07:46.833Z,941.99
2017-02-23T04:08:46.903Z,942.02
2017-02-23T04:09:46.810Z,942.03
2017-02-23T04:10:46.799Z,942.07
2017-02-23T04:11:46.787Z,942.05
2017-02-23T04:12:46.775Z,942.05
2017-02-23T04:13:46.763Z,941.94
2017-02-23T04:14:46.753Z,942
2017-02-23T04:15:46.739Z,941.92
2017-02-23T04:16:46.729Z,942.03
2017-02-23T04:17:46.717Z,941.92
2017-02-23T04:18:46.704Z,942.01
2017-02-23T04:19:46.693Z,941.91
2017-02-23T04:20:46.682Z,941.9
2017-02-23T04:21:46.671Z,941.89
2017-02-23T04:22:46.659Z,941.95
2017-02-23T04:23:46.647Z,941.96
2017-02-23T04:24:46.635Z,942.07
2017-02-23T04:25:46.624Z,941.85
2017-02-23T04:26:46.611Z,941.99
2017-02-23T04:27:46.601Z,941.95
2017-02-23T04:28:46.589Z,941.92
2017-02-23T04:29:46.575Z,941.99
2017-02-23T04:30:46.565Z,942.06
2017-02-23T04:31:46.554Z,941.9
2017-02-23T04:32:46.542Z,941.95
2017-02-23T04:33:46.530Z,942
2017-02-23T04:34:46.518Z,941.9
2017-02-23T04:35:46.508Z,941.92
2017-02-23T04:36:46.495Z,941.96
2017-02-23T04:37:46.485Z,942.03
2017-02-23T04:38:46.473Z,941.98
2017-02-23T04:39:46.460Z,941.95
2017-02-23T04:40:46.448Z,941.91
2017-02-23T04:41:46.437Z,941.88
2017-02-23T04:42:46.425Z,941.84
2017-02-23T04:43:46.413Z,941.88
2017-02-23T04:44:46.401Z,941.85
2017-02-23T04:45:46.390Z,941.92
2017-02-23T04:46:46.382Z,941.87
2017-02-23T04:47:46.366Z,941.91
2017-02-23T04:48:46.353Z,941.89
2017-02-23T04:49:46.343Z,941.84
2017-02-23T04:50:46.332Z,941.82
2017-02-23T04:51:46.319Z,941.84
2017-02-23T04:52:46.307Z,941.9
2017-02-23T04:53:46.297Z,941.86
2017-02-23T04:54:46.285Z,941.91
2017-02-23T04:55:46.272Z,941.86
2017-02-23T04:56:46.260Z,941.92
2017-02-23T04:57:46.249Z,941.84
2017-02-23T04:58:46.237Z,941.89
2017-02-23T04:59:46.225Z,941.91
2017-02-23T05:00:46.214Z,941.85
2017-02-23T05:01:46.203Z,941.88
2017-02-23T05:02:46.191Z,941.85
2017-02-23T05:03:46.180Z,941.77
2017-02-23T05:04:46.168Z,941.82
2017-02-23T05:05:46.158Z,941.83
2017-02-23T05:06:46.144Z,941.86
2017-02-23T05:07:46.133Z,941.89
2017-02-23T05:08:46.121Z,941.88
2017-02-23T05:09:46.109Z,941.87
2017-02-23T05:10:46.097Z,941.94
2017-02-23T05:11:46.087Z,941.9
2017-02-23T05:12:46.074Z,942.01
2017-02-23T05:13:46.062Z,941.93
2017-02-23T05:14:46.052Z,941.98
2017-02-23T05:15:46.040Z,941.88
2017-02-23T05:16:46.027Z,941.96
2017-02-23T05:17:46.016Z,941.93
2017-02-23T05:18:46.004Z,942.06
2017-02-23T05:19:45.993Z,941.98
2017-02-23T05:20:45.981Z,942.02
2017-02-23T05:21:45.970Z,941.99
2017-02-23T05:22:45.958Z,942.01
2017-02-23T05:23:45.949Z,942.01
2017-02-23T05:24:45.935Z,942.02
2017-02-23T05:25:45.924Z,942
2017-02-23T05:26:45.913Z,942.07
2017-02-23T05:27:45.901Z,942.02
2017-02-23T05:28:45.888Z,942.02
2017-02-23T05:29:45.876Z,942
2017-02-23T05:30:45.867Z,941.98
2017-02-23T05:31:45.855Z,941.94
2017-02-23T05:32:45.842Z,941.99
2017-02-23T05:33:45.830Z,941.96
2017-02-23T05:34:45.821Z,942.08
2017-02-23T05:35:45.807Z,941.94
2017-02-23T05:36:45.796Z,942.02
2017-02-23T05:37:45.786Z,942.05
2017-02-23T05:38:45.774Z,941.96
2017-02-23T05:39:45.761Z,941.96
2017-02-23T05:40:45.750Z,942.01
2017-02-23T05:41:45.739Z,942.02
2017-02-23T05:42:45.727Z,942.04
2017-02-23T05:43:45.715Z,942.02
2017-02-23T05:44:45.704Z,942.03
2017-02-23T05:45:45.693Z,942.14
2017-02-23T05:46:45.681Z,942.03
2017-02-23T05:47:45.671Z,942.04
2017-02-23T05:48:45.659Z,942
2017-02-23T05:49:45.647Z,941.95
2017-02-23T05:50:45.634Z,941.99
2017-02-23T05:51:45.627Z,942.01
2017-02-23T05:52:45.612Z,941.97
2017-02-23T05:53:45.600Z,941.98
2017-02-23T05:54:45.589Z,942
2017-02-23T05:55:45.577Z,942.01
2017-02-23T05:56:45.566Z,942.01
2017-02-23T05:57:45.554Z,941.91
2017-02-23T05:58:45.542Z,942
2017-02-23T05:59:45.531Z,941.9
2017-02-23T06:00:45.522Z,941.92
2017-02-23T06:01:45.507Z,941.98
2017-02-23T06:02:45.497Z,941.95
2017-02-23T06:03:45.484Z,941.9
2017-02-23T06:04:45.472Z,941.95
2017-02-23T06:05:45.461Z,941.93
2017-02-23T06:06:45.449Z,941.98
2017-02-23T06:07:45.438Z,942.01
2017-02-23T06:08:45.428Z,941.98
2017-02-23T06:09:45.415Z,941.97
2017-02-23T06:10:45.403Z,941.94
2017-02-23T06:11:45.392Z,941.97
2017-02-23T06:12:45.381Z,941.95
2017-02-23T06:13:45.369Z,941.98
2017-02-23T06:14:45.359Z,941.94
2017-02-23T06:15:45.344Z,942.02
2017-02-23T06:16:45.333Z,941.89
2017-02-23T06:17:45.321Z,941.95
2017-02-23T06:18:45.311Z,941.95
2017-02-23T06:19:45.298Z,941.89
2017-02-23T06:20:45.287Z,941.97
2017-02-23T06:21:45.276Z,942.06
2017-02-23T06:22:45.263Z,941.98
2017-02-23T06:23:45.252Z,941.98
2017-02-23T06:24:45.240Z,941.98
2017-02-23T06:25:45.231Z,941.85
2017-02-23T06:26:45.215Z,941.91
2017-02-23T06:27:45.204Z,941.89
2017-02-23T06:28:45.193Z,941.94
2017-02-23T06:29:45.180Z,941.93
2017-02-23T06:30:45.168Z,941.95
2017-02-23T06:31:45.157Z,941.94
2017-02-23T06:32:45.155Z,941.98
2017-02-23T06:33:45.134Z,941.9
2017-02-23T06:34:45.123Z,941.94
2017-02-23T06:35:45.111Z,941.93
2017-02-23T06:36:45.101Z,941.93
2017-02-23T06:37:45.088Z,941.94
2017-02-23T06:38:45.075Z,941.94
2017-02-23T06:39:45.063Z,941.97
2017-02-23T06:40:45.052Z,941.88
2017-02-23T06:41:45.040Z,941.91
2017-02-23T06:42:45.027Z,941.93
2017-02-23T06:43:45.017Z,941.89
2017-02-23T06:44:45.005Z,941.94
2017-02-23T06:45:44.992Z,941.98
2017-02-23T06:46:44.984Z,941.91
2017-02-23T06:47:44.969Z,941.91
2017-02-23T06:48:44.956Z,941.89
2017-02-23T06:49:44.945Z,941.88
2017-02-23T06:50:44.933Z,941.89
2017-02-23T06:51:44.922Z,941.85
2017-02-23T06:52:44.909Z,941.89
2017-02-23T06:53:44.897Z,941.85
2017-02-23T06:54:44.886Z,941.86
2017-02-23T06:55:44.873Z,941.87
2017-02-23T06:56:44.862Z,941.82
2017-02-23T06:57:44.850Z,941.8
2017-02-23T06:58:44.838Z,941.76
2017-02-23T06:59:44.826Z,941.77
2017-02-23T07:00:44.815Z,941.79
2017-02-23T07:01:44.802Z,941.76
2017-02-23T07:02:44.790Z,941.77
2017-02-23T07:03:44.778Z,941.73
2017-02-23T07:04:44.766Z,941.74
2017-02-23T07:05:44.754Z,941.79
2017-02-23T07:06:44.743Z,941.76
2017-02-23T07:07:44.730Z,941.69
2017-02-23T07:08:44.719Z,941.76
2017-02-23T07:09:44.707Z,941.69
2017-02-23T07:10:44.696Z,941.71
2017-02-23T07:11:44.684Z,941.73
2017-02-23T07:12:44.672Z,941.72
2017-02-23T07:13:44.659Z,941.75
2017-02-23T07:14:44.648Z,941.68
2017-02-23T07:15:44.636Z,941.74
2017-02-23T07:16:44.626Z,941.71
2017-02-23T07:17:44.611Z,941.73
2017-02-23T07:18:44.600Z,941.57
2017-02-23T07:19:44.590Z,941.62
2017-02-23T07:20:44.577Z,941.59
2017-02-23T07:21:44.565Z,941.6
2017-02-23T07:22:44.553Z,941.63
2017-02-23T07:23:44.542Z,941.71
2017-02-23T07:24:44.529Z,941.61
2017-02-23T07:25:44.517Z,941.59
2017-02-23T07:26:44.506Z,941.57
2017-02-23T07:27:44.495Z,941.58
2017-02-23T07:28:44.481Z,941.58
2017-02-23T07:29:44.470Z,941.57
2017-02-23T07:30:44.458Z,941.55
2017-02-23T07:31:44.446Z,941.56
2017-02-23T07:32:44.435Z,941.56
2017-02-23T07:33:44.422Z,941.62
2017-02-23T07:34:44.411Z,941.58
2017-02-23T07:35:44.399Z,941.46
2017-02-23T07:36:44.387Z,941.6
2017-02-23T07:37:44.375Z,941.57
2017-02-23T07:38:44.363Z,941.51
2017-02-23T07:39:44.350Z,941.47
2017-02-23T07:40:44.340Z,941.53
2017-02-23T07:41:44.329Z,941.5
2017-02-23T07:42:44.317Z,941.48
2017-02-23T07:43:44.304Z,941.43
2017-02-23T07:44:44.293Z,941.44
2017-02-23T07:45:44.283Z,941.35
2017-02-23T07:46:44.271Z,941.45
2017-02-23T07:47:44.258Z,941.37
2017-02-23T07:48:44.247Z,941.42
2017-02-23T07:49:44.235Z,941.37
2017-02-23T07:50:44.223Z,941.33
2017-02-23T07:51:44.213Z,941.31
2017-02-23T07:52:44.199Z,941.34
2017-02-23T07:53:44.189Z,941.23
2017-02-23T07:54:44.178Z,941.33
2017-02-23T07:55:44.165Z,941.29
2017-02-23T07:56:44.154Z,941.26
2017-02-23T07:57:44.141Z,941.28
2017-02-23T07:58:44.131Z,941.29
2017-02-23T07:59:44.121Z,941.11
2017-02-23T08:00:44.108Z,941.19
2017-02-23T08:01:44.097Z,941.16
2017-02-23T08:02:44.096Z,941.13
2017-02-23T08:03:44.075Z,941.2
2017-02-23T08:04:44.064Z,941.17
2017-02-23T08:05:44.052Z,941.13
2017-02-23T08:06:44.040Z,941.12
2017-02-23T08:07:44.029Z,941.14
2017-02-23T08:08:44.018Z,941
2017-02-23T08:09:44.007Z,941.01
2017-02-23T08:10:43.995Z,941.06
2017-02-23T08:11:43.985Z,941.07
2017-02-23T08:12:43.974Z,940.99
2017-02-23T08:13:43.962Z,940.96
2017-02-23T08:14:43.951Z,940.93
2017-02-23T08:15:43.940Z,940.93
2017-02-23T08:16:43.929Z,940.91
2017-02-23T08:17:43.919Z,940.8
2017-02-23T08:18:43.907Z,940.85
2017-02-23T08:19:43.895Z,940.96
2017-02-23T08:20:43.885Z,940.93
2017-02-23T08:21:43.873Z,940.89
2017-02-23T08:22:43.863Z,940.84
2017-02-23T08:23:43.850Z,940.82
2017-02-23T08:24:43.840Z,940.86
2017-02-23T08:25:43.828Z,940.87
2017-02-23T08:26:43.817Z,940.86
2017-02-23T08:27:43.805Z,940.9
2017-02-23T08:28:43.794Z,940.85
2017-02-23T08:29:43.783Z,940.77
2017-02-23T08:30:43.771Z,940.78
2017-02-23T08:31:43.760Z,940.79
2017-02-23T08:32:43.748Z,940.8
2017-02-23T08:33:43.738Z,940.82
2017-02-23T08:34:43.726Z,940.82
2017-02-23T08:35:43.715Z,940.86
2017-02-23T08:36:43.703Z,940.9
2017-02-23T08:37:43.693Z,940.75
2017-02-23T08:38:43.681Z,940.78
2017-02-23T08:39:43.669Z,940.81
2017-02-23T08:40:43.659Z,940.68
2017-02-23T08:41:43.647Z,940.89
2017-02-23T08:42:43.635Z,940.73
2017-02-23T08:43:43.623Z,940.76
2017-02-23T08:44:43.613Z,940.72
2017-02-23T08:45:43.601Z,940.69
2017-02-23T08:46:43.588Z,940.7
2017-02-23T08:47:43.578Z,940.62
2017-02-23T08:48:43.567Z,940.6
2017-02-23T08:49:43.555Z,940.6
2017-02-23T08:50:43.543Z,940.54
2017-02-23T08:51:43.532Z,940.57
2017-02-23T08:52:43.519Z,940.56
2017-02-23T08:53:43.508Z,940.45
2017-02-23T08:54:43.497Z,940.48
2017-02-23T08:55:43.486Z,940.54
2017-02-23T08:56:43.472Z,940.55
2017-02-23T08:57:43.461Z,940.57
2017-02-23T08:58:43.449Z,940.54
2017-02-23T08:59:43.439Z,940.56
2017-02-23T09:00:43.426Z,940.59
2017-02-23T09:01:43.415Z,940.51
2017-02-23T09:02:43.431Z,940.59
2017-02-23T09:03:43.390Z,940.58
2017-02-23T09:04:43.380Z,940.52
2017-02-23T09:05:43.369Z,940.54
2017-02-23T09:06:43.357Z,940.55
2017-02-23T09:07:43.345Z,940.52
2017-02-23T09:08:43.334Z,940.54
2017-02-23T09:09:43.322Z,940.56
2017-02-23T09:10:43.310Z,940.48
2017-02-23T09:11:43.298Z,940.45
2017-02-23T09:12:43.287Z,940.38
2017-02-23T09:13:43.276Z,940.37
2017-02-23T09:14:43.263Z,940.42
2017-02-23T09:15:43.252Z,940.31
2017-02-23T09:16:43.240Z,940.31
2017-02-23T09:17:43.228Z,940.25
2017-02-23T09:18:43.217Z,940.34
2017-02-23T09:19:43.204Z,940.35
2017-02-23T09:20:43.193Z,940.23
2017-02-23T09:21:43.183Z,940.28
2017-02-23T09:22:43.172Z,940.22
2017-02-23T09:23:43.159Z,940.22
2017-02-23T09:24:43.148Z,940.25
2017-02-23T09:25:43.135Z,940.23
2017-02-23T09:26:43.124Z,940.14
2017-02-23T09:27:43.114Z,940.19
2017-02-23T09:28:43.101Z,940.2
2017-02-23T09:29:43.089Z,940.22
2017-02-23T09:30:43.077Z,940.21
2017-02-23T09:31:43.065Z,940.1
2017-02-23T09:32:43.056Z,940.16
2017-02-23T09:33:43.042Z,940.1
2017-02-23T09:34:43.030Z,940.11
2017-02-23T09:35:43.020Z,940.05
2017-02-23T09:36:43.006Z,940.07
2017-02-23T09:37:42.995Z,940
2017-02-23T09:38:42.985Z,939.99
2017-02-23T09:39:42.971Z,940.03
2017-02-23T09:40:42.960Z,940.16
2017-02-23T09:41:42.948Z,940.15
2017-02-23T09:42:42.937Z,940.16
2017-02-23T09:43:42.924Z,940.11
2017-02-23T09:44:42.914Z,940.16
2017-02-23T09:45:42.902Z,940.17
2017-02-23T09:46:42.891Z,940.16
2017-02-23T09:47:42.877Z,940.15
2017-02-23T09:48:42.866Z,940.11
2017-02-23T09:49:42.854Z,940.12
2017-02-23T09:50:42.843Z,940.2
2017-02-23T09:51:42.829Z,940.27
2017-02-23T09:52:42.825Z,940.08
2017-02-23T09:53:42.808Z,940.14
2017-02-23T09:54:42.795Z,940.09
2017-02-23T09:55:42.783Z,940.12
2017-02-23T09:56:42.771Z,940.11
2017-02-23T09:57:42.760Z,940.17
2017-02-23T09:58:42.747Z,940.14
2017-02-23T09:59:42.736Z,940.13
2017-02-23T10:00:42.724Z,940.2
2017-02-23T10:01:42.713Z,940.07
2017-02-23T10:02:42.700Z,940.05
2017-02-23T10:03:42.689Z,940.01
2017-02-23T10:04:42.676Z,939.98
2017-02-23T10:05:42.668Z,940.05
2017-02-23T10:06:42.652Z,939.99
2017-02-23T10:07:42.641Z,940.02
2017-02-23T10:08:42.630Z,939.96
2017-02-23T10:09:42.616Z,939.94
2017-02-23T10:10:42.604Z,940.01
2017-02-23T10:11:42.593Z,939.89
2017-02-23T10:12:42.581Z,939.9
2017-02-23T10:13:42.569Z,939.94
2017-02-23T10:14:42.556Z,939.87
2017-02-23T10:15:42.546Z,939.93
2017-02-23T10:16:42.532Z,939.82
2017-02-23T10:17:42.521Z,939.82
2017-02-23T10:18:42.509Z,939.77
2017-02-23T10:19:42.497Z,939.79
2017-02-23T10:20:42.485Z,939.77
2017-02-23T10:21:42.474Z,939.77
2017-02-23T10:22:42.461Z,939.73
2017-02-23T10:23:42.450Z,939.64
2017-02-23T10:24:42.436Z,939.62
2017-02-23T10:25:42.425Z,939.66
2017-02-23T10:26:42.416Z,939.61
2017-02-23T10:27:42.400Z,939.67
2017-02-23T10:28:42.389Z,939.72
2017-02-23T10:29:42.378Z,939.69
2017-02-23T10:30:42.366Z,939.66
2017-02-23T10:31:42.355Z,939.72
2017-02-23T10:32:42.342Z,939.65
2017-02-23T10:33:42.331Z,939.61
2017-02-23T10:34:42.317Z,939.65
2017-02-23T10:35:42.305Z,939.76
2017-02-23T10:36:42.295Z,939.65
2017-02-23T10:37:42.284Z,939.67
2017-02-23T10:38:42.270Z,939.53
2017-02-23T10:39:42.257Z,939.54
2017-02-23T10:40:42.247Z,939.4
2017-02-23T10:41:42.236Z,939.5
2017-02-23T10:42:42.223Z,939.47
2017-02-23T10:43:42.211Z,939.47
2017-02-23T10:44:42.199Z,939.44
2017-02-23T10:45:42.189Z,939.45
2017-02-23T10:46:42.175Z,939.4
2017-02-23T10:47:42.163Z,939.46
2017-02-23T10:48:42.151Z,939.43
2017-02-23T10:49:42.139Z,939.42
2017-02-23T10:50:42.127Z,939.42
2017-02-23T10:51:42.117Z,939.27
2017-02-23T10:52:42.103Z,939.3
2017-02-23T10:53:42.092Z,939.28
2017-02-23T10:54:42.082Z,939.3
2017-02-23T10:55:42.068Z,939.29
2017-02-23T10:56:42.057Z,939.29
2017-02-23T10:57:42.045Z,939.32
2017-02-23T10:58:42.035Z,939.33
2017-02-23T10:59:42.022Z,939.25
2017-02-23T11:00:42.009Z,939.37
2017-02-23T11:01:41.999Z,939.23
2017-02-23T11:02:41.987Z,939.33
2017-02-23T11:03:41.975Z,939.28
2017-02-23T11:04:41.963Z,939.34
2017-02-23T11:05:41.950Z,939.34
2017-02-23T11:06:41.939Z,939.34
2017-02-23T11:07:41.927Z,939.32
2017-02-23T11:08:41.917Z,939.39
2017-02-23T11:09:41.904Z,939.27
2017-02-23T11:10:41.892Z,939.17
2017-02-23T11:11:41.880Z,939.23
2017-02-23T11:12:41.868Z,939.12
2017-02-23T11:13:41.857Z,939.22
2017-02-23T11:14:41.847Z,939.09
2017-02-23T11:15:41.833Z,939.18
2017-02-23T11:16:41.822Z,939.13
2017-02-23T11:17:41.810Z,939.14
2017-02-23T11:18:41.796Z,939.02
2017-02-23T11:19:41.792Z,939.04
2017-02-23T11:20:41.774Z,939.06
2017-02-23T11:21:41.763Z,939.06
2017-02-23T11:22:41.750Z,939.12
2017-02-23T11:23:41.738Z,939.14
2017-02-23T11:24:41.726Z,939.16
2017-02-23T11:25:41.716Z,939.09
2017-02-23T11:26:41.703Z,939.09
2017-02-23T11:27:41.691Z,939.01
2017-02-23T11:28:41.679Z,939.12
2017-02-23T11:29:41.667Z,939
2017-02-23T11:30:41.672Z,939.06
2017-02-23T11:31:41.644Z,939.09
2017-02-23T11:32:41.633Z,938.94
2017-02-23T11:33:41.619Z,938.91
2017-02-23T11:34:41.609Z,938.93
2017-02-23T11:35:41.598Z,938.96
2017-02-23T11:36:41.585Z,938.92
2017-02-23T11:37:41.572Z,938.89
2017-02-23T11:38:41.561Z,938.84
2017-02-23T11:39:41.550Z,938.88
2017-02-23T11:40:41.539Z,938.78
2017-02-23T11:41:41.524Z,938.8
2017-02-23T11:42:41.515Z,938.87
2017-02-23T11:43:41.503Z,938.81
2017-02-23T11:44:41.491Z,938.67
2017-02-23T11:45:41.479Z,938.68
2017-02-23T11:46:41.468Z,938.73
2017-02-23T11:47:41.458Z,938.55
2017-02-23T11:48:41.444Z,938.45
2017-02-23T11:49:41.432Z,938.42
2017-02-23T11:50:41.421Z,938.46
2017-02-23T11:51:41.410Z,938.4
2017-02-23T11:52:41.398Z,938.39
2017-02-23T11:53:41.387Z,938.33
2017-02-23T11:54:41.377Z,938.35
2017-02-23T11:55:41.364Z,938.24
2017-02-23T11:56:41.353Z,938.28
2017-02-23T11:57:41.343Z,938.24
2017-02-23T11:58:41.331Z,938.22
2017-02-23T11:59:41.318Z,938.17
2017-02-23T12:00:41.308Z,938.18
2017-02-23T12:01:41.298Z,938.14
2017-02-23T12:02:41.286Z,938.05
2017-02-23T12:03:41.274Z,937.96
2017-02-23T12:04:41.264Z,938.01
2017-02-23T12:05:41.252Z,937.86
2017-02-23T12:06:41.241Z,937.92
2017-02-23T12:07:41.230Z,937.9
2017-02-23T12:08:41.220Z,937.8
2017-02-23T12:09:41.222Z,937.8
2017-02-23T12:10:41.198Z,937.7
2017-02-23T12:11:41.187Z,937.68
2017-02-23T12:12:41.175Z,937.63
2017-02-23T12:13:41.165Z,937.53
2017-02-23T12:14:41.159Z,937.54
2017-02-23T12:15:41.144Z,937.44
2017-02-23T12:16:41.134Z,937.45
2017-02-23T12:17:41.123Z,937.42
2017-02-23T12:18:41.112Z,937.35
2017-02-23T12:19:41.101Z,937.33
2017-02-23T12:20:41.092Z,937.29
2017-02-23T12:21:41.081Z,937.21
2017-02-23T12:22:41.070Z,937.18
2017-02-23T12:23:41.060Z,937.15
2017-02-23T12:24:41.049Z,937.04
2017-02-23T12:25:41.039Z,937.03
2017-02-23T12:26:41.030Z,937
2017-02-23T12:27:41.019Z,937.06
2017-02-23T12:28:41.007Z,937
2017-02-23T12:29:40.998Z,936.93
2017-02-23T12:30:40.988Z,936.9
2017-02-23T12:31:40.978Z,936.87